RJDT Airport Information

Runway Information
Runway 14 Length 6234 ft width 150 ft
Elevation 205 ft Threshold ft Heading 136
Runway 32 Length 6234 ft Width 150 ft
Elevation 182 ft Threshold ft Heading 316
Airport Frequencies
Type RDO Name RDO Frequency 124.3 MHZ
Airport Navaids
Type NDB Name Tsushima Frequency 393 KHZ
Type VOR-DME Name Tsushima Frequency 111450 KHZ
Airport Weather Information & NOTAM
ADDS - METARS form results

(0255 UTC 13 August 2022)
Data provider http://aviationweather.gov/metar/data/
 
METAR text: RJDT 130200Z 27004KT 190V310 9999 FEW010 SCT020 BKN/// 30/26 Q1007
Conditions at: RJDT (TSUSHIMA AIRPORT, JP) observed 0200 UTC 13 August 2022
Temperature: 30.0°C (86°F)
Dewpoint: 26.0°C (79°F) [RH = 79%]
Pressure (altimeter): 29.73 inches Hg (1007.0 mb)
Winds: from the W (270 degrees) at 5 MPH (4 knots; 2.1 m/s)
Visibility: 6 or more miles (10+ km)
Ceiling: at least 12,000 feet AGL
Clouds: few clouds at 1000 feet AGL
scattered clouds at 2000 feet AGL
Weather: no significant weather observed at this time